sensor_id;sensor_type;location;lat;lon;timestamp;pressure;altitude;pressure_sealevel;temperature;humidity
78354;BME280;67629;46.040;18.232;2023-12-28T00:00:16;100540.72;;;4.42;97.13
78354;BME280;67629;46.040;18.232;2023-12-28T00:00:47;100538.38;;;4.39;96.23
78354;BME280;67629;46.040;18.232;2023-12-28T00:01:34;100545.56;;;4.32;96.58
78354;BME280;67629;46.040;18.232;2023-12-28T00:02:19;100540.91;;;4.41;96.91
78354;BME280;67629;46.040;18.232;2023-12-28T00:02:50;100544.75;;;4.46;95.97
78354;BME280;67629;46.040;18.232;2023-12-28T00:03:21;100535.22;;;4.36;96.37
78354;BME280;67629;46.040;18.232;2023-12-28T00:03:51;100533.53;;;4.35;96.26
78354;BME280;67629;46.040;18.232;2023-12-28T00:04:25;100541.66;;;4.12;96.90
78354;BME280;67629;46.040;18.232;2023-12-28T00:04:58;100539.38;;;4.01;97.56
78354;BME280;67629;46.040;18.232;2023-12-28T00:05:29;100540.22;;;4.01;97.97
78354;BME280;67629;46.040;18.232;2023-12-28T00:06:00;100540.81;;;4.12;97.92
78354;BME280;67629;46.040;18.232;2023-12-28T00:06:31;100539.72;;;4.21;97.58
78354;BME280;67629;46.040;18.232;2023-12-28T00:07:04;100540.75;;;4.20;97.26
78354;BME280;67629;46.040;18.232;2023-12-28T00:07:35;100538.41;;;4.17;97.17
78354;BME280;67629;46.040;18.232;2023-12-28T00:08:06;100545.84;;;4.15;97.77
78354;BME280;67629;46.040;18.232;2023-12-28T00:08:37;100534.19;;;4.14;98.04
78354;BME280;67629;46.040;18.232;2023-12-28T00:09:08;100538.59;;;4.15;98.04
78354;BME280;67629;46.040;18.232;2023-12-28T00:09:40;100537.09;;;4.13;97.47
78354;BME280;67629;46.040;18.232;2023-12-28T00:10:27;100539.44;;;4.16;97.43
78354;BME280;67629;46.040;18.232;2023-12-28T00:11:14;100542.13;;;4.16;97.95
78354;BME280;67629;46.040;18.232;2023-12-28T00:11:44;100541.09;;;4.17;97.31
78354;BME280;67629;46.040;18.232;2023-12-28T00:12:30;100541.34;;;4.07;98.04
78354;BME280;67629;46.040;18.232;2023-12-28T00:13:49;100542.22;;;3.99;98.05
78354;BME280;67629;46.040;18.232;2023-12-28T00:14:20;100546.44;;;4.02;97.60
78354;BME280;67629;46.040;18.232;2023-12-28T00:14:50;100540.88;;;4.03;98.16
78354;BME280;67629;46.040;18.232;2023-12-28T00:15:22;100542.84;;;4.10;98.04
78354;BME280;67629;46.040;18.232;2023-12-28T00:15:53;100549.91;;;4.11;97.59
78354;BME280;67629;46.040;18.232;2023-12-28T00:16:23;100547.34;;;4.17;97.84
78354;BME280;67629;46.040;18.232;2023-12-28T00:16:54;100538.88;;;4.20;97.25
78354;BME280;67629;46.040;18.232;2023-12-28T00:17:25;100544.78;;;4.24;97.10
78354;BME280;67629;46.040;18.232;2023-12-28T00:17:56;100539.00;;;4.27;96.65
78354;BME280;67629;46.040;18.232;2023-12-28T00:18:26;100546.56;;;4.31;96.59
78354;BME280;67629;46.040;18.232;2023-12-28T00:18:57;100545.72;;;4.31;96.77
78354;BME280;67629;46.040;18.232;2023-12-28T00:19:28;100547.06;;;4.35;96.82
78354;BME280;67629;46.040;18.232;2023-12-28T00:19:59;100545.47;;;4.40;96.50
78354;BME280;67629;46.040;18.232;2023-12-28T00:20:29;100550.59;;;4.35;96.63
78354;BME280;67629;46.040;18.232;2023-12-28T00:21:00;100540.72;;;4.42;97.06
78354;BME280;67629;46.040;18.232;2023-12-28T00:21:31;100545.97;;;4.44;96.54
78354;BME280;67629;46.040;18.232;2023-12-28T00:22:02;100535.69;;;4.39;96.28
78354;BME280;67629;46.040;18.232;2023-12-28T00:22:32;100540.28;;;4.39;96.49
78354;BME280;67629;46.040;18.232;2023-12-28T00:23:03;100544.91;;;4.30;96.79
78354;BME280;67629;46.040;18.232;2023-12-28T00:23:35;100541.03;;;4.25;97.18
78354;BME280;67629;46.040;18.232;2023-12-28T00:24:06;100549.22;;;4.17;97.08
78354;BME280;67629;46.040;18.232;2023-12-28T00:24:37;100543.63;;;4.18;97.46
78354;BME280;67629;46.040;18.232;2023-12-28T00:25:08;100544.28;;;4.20;97.65
78354;BME280;67629;46.040;18.232;2023-12-28T00:25:38;100540.88;;;4.03;97.41
78354;BME280;67629;46.040;18.232;2023-12-28T00:26:09;100541.88;;;4.02;97.62
78354;BME280;67629;46.040;18.232;2023-12-28T00:26:40;100547.28;;;4.02;97.57
78354;BME280;67629;46.040;18.232;2023-12-28T00:27:11;100548.63;;;4.07;97.37
78354;BME280;67629;46.040;18.232;2023-12-28T00:27:41;100544.34;;;4.12;97.25
78354;BME280;67629;46.040;18.232;2023-12-28T00:28:12;100540.81;;;4.12;97.03
78354;BME280;67629;46.040;18.232;2023-12-28T00:28:43;100546.22;;;4.12;97.97
78354;BME280;67629;46.040;18.232;2023-12-28T00:29:14;100544.16;;;4.14;97.45
78354;BME280;67629;46.040;18.232;2023-12-28T00:29:44;100546.69;;;4.15;97.67
78354;BME280;67629;46.040;18.232;2023-12-28T00:30:15;100545.50;;;4.18;97.42
78354;BME280;67629;46.040;18.232;2023-12-28T00:30:47;100549.53;;;4.22;97.16
78354;BME280;67629;46.040;18.232;2023-12-28T00:31:18;100548.13;;;4.26;97.10
78354;BME280;67629;46.040;18.232;2023-12-28T00:31:49;100545.78;;;4.23;97.04
78354;BME280;67629;46.040;18.232;2023-12-28T00:32:19;100542.94;;;4.16;97.41
78354;BME280;67629;46.040;18.232;2023-12-28T00:38:24;100535.22;;;4.13;97.06
78354;BME280;67629;46.040;18.232;2023-12-28T00:38:54;100536.06;;;4.14;97.58
78354;BME280;67629;46.040;18.232;2023-12-28T00:39:25;100538.94;;;4.12;97.40
78354;BME280;67629;46.040;18.232;2023-12-28T00:39:56;100531.69;;;4.13;97.19
78354;BME280;67629;46.040;18.232;2023-12-28T00:40:27;100543.81;;;4.17;97.13
78354;BME280;67629;46.040;18.232;2023-12-28T00:40:57;100534.03;;;4.16;97.16
78354;BME280;67629;46.040;18.232;2023-12-28T00:41:28;100536.19;;;4.20;97.24
78354;BME280;67629;46.040;18.232;2023-12-28T00:41:59;100542.06;;;4.24;97.33
78354;BME280;67629;46.040;18.232;2023-12-28T00:42:30;100536.59;;;4.32;97.02
78354;BME280;67629;46.040;18.232;2023-12-28T00:43:00;100537.44;;;4.32;96.95
78354;BME280;67629;46.040;18.232;2023-12-28T00:43:31;100532.75;;;4.26;96.78
78354;BME280;67629;46.040;18.232;2023-12-28T00:44:02;100529.03;;;4.27;96.30
78354;BME280;67629;46.040;18.232;2023-12-28T00:44:33;100537.44;;;4.32;96.99
78354;BME280;67629;46.040;18.232;2023-12-28T00:45:04;100533.25;;;4.30;96.25
78354;BME280;67629;46.040;18.232;2023-12-28T00:45:34;100535.38;;;4.34;96.15
78354;BME280;67629;46.040;18.232;2023-12-28T00:46:05;100537.44;;;4.32;96.51
78354;BME280;67629;46.040;18.232;2023-12-28T00:46:36;100533.25;;;4.30;96.39
78354;BME280;67629;46.040;18.232;2023-12-28T00:47:06;100528.84;;;4.29;96.65
78354;BME280;67629;46.040;18.232;2023-12-28T00:47:37;100530.69;;;4.28;96.69
78354;BME280;67629;46.040;18.232;2023-12-28T00:48:08;100530.69;;;4.28;96.49
78354;BME280;67629;46.040;18.232;2023-12-28T00:48:39;100522.28;;;4.23;96.96
78354;BME280;67629;46.040;18.232;2023-12-28T00:49:10;100528.19;;;4.27;96.39
78354;BME280;67629;46.040;18.232;2023-12-28T00:49:40;100532.91;;;4.25;96.56
78354;BME280;67629;46.040;18.232;2023-12-28T00:50:11;100528.25;;;4.19;96.76
78354;BME280;67629;46.040;18.232;2023-12-28T00:50:42;100530.97;;;4.19;97.07
78354;BME280;67629;46.040;18.232;2023-12-28T00:51:13;100528.91;;;4.21;97.11
78354;BME280;67629;46.040;18.232;2023-12-28T00:51:44;100536.81;;;4.22;96.65
78354;BME280;67629;46.040;18.232;2023-12-28T00:52:15;100534.31;;;4.21;96.78
78354;BME280;67629;46.040;18.232;2023-12-28T00:52:46;100538.88;;;4.20;97.18
78354;BME280;67629;46.040;18.232;2023-12-28T00:53:17;100530.78;;;4.20;97.21
78354;BME280;67629;46.040;18.232;2023-12-28T00:53:47;100531.53;;;4.29;97.07
78354;BME280;67629;46.040;18.232;2023-12-28T00:54:19;100539.13;;;4.33;96.67
78354;BME280;67629;46.040;18.232;2023-12-28T00:54:50;100529.31;;;4.32;96.59
78354;BME280;67629;46.040;18.232;2023-12-28T00:55:20;100540.31;;;4.31;96.73
78354;BME280;67629;46.040;18.232;2023-12-28T00:56:21;100528.91;;;4.21;96.35
78354;BME280;67629;46.040;18.232;2023-12-28T00:56:52;100535.34;;;4.20;96.67
78354;BME280;67629;46.040;18.232;2023-12-28T00:57:23;100531.50;;;4.14;97.07
78354;BME280;67629;46.040;18.232;2023-12-28T00:57:53;100535.34;;;4.20;96.97
78354;BME280;67629;46.040;18.232;2023-12-28T00:58:24;100535.63;;;4.25;96.57
78354;BME280;67629;46.040;18.232;2023-12-28T00:58:55;100540.22;;;4.24;96.69
78354;BME280;67629;46.040;18.232;2023-12-28T00:59:25;100528.06;;;4.20;96.53
78354;BME280;67629;46.040;18.232;2023-12-28T00:59:56;100536.38;;;4.19;96.71
78354;BME280;67629;46.040;18.232;2023-12-28T01:00:27;100540.25;;;4.16;96.30
78354;BME280;67629;46.040;18.232;2023-12-28T01:00:59;100538.88;;;4.20;96.96
78354;BME280;67629;46.040;18.232;2023-12-28T01:01:30;100532.13;;;4.16;96.38
78354;BME280;67629;46.040;18.232;2023-12-28T01:02:03;100543.56;;;4.03;96.50
78354;BME280;67629;46.040;18.232;2023-12-28T01:02:34;100537.03;;;3.98;96.28
78354;BME280;67629;46.040;18.232;2023-12-28T01:03:05;100538.69;;;3.99;96.63
78354;BME280;67629;46.040;18.232;2023-12-28T01:03:35;100544.88;;;4.08;96.90
78354;BME280;67629;46.040;18.232;2023-12-28T01:04:06;100535.22;;;4.13;96.95
78354;BME280;67629;46.040;18.232;2023-12-28T01:04:37;100537.25;;;4.11;96.79
78354;BME280;67629;46.040;18.232;2023-12-28T01:05:07;100547.06;;;4.12;96.72
78354;BME280;67629;46.040;18.232;2023-12-28T01:05:38;100542.50;;;4.13;97.14
78354;BME280;67629;46.040;18.232;2023-12-28T01:06:39;100545.84;;;4.15;97.20
78354;BME280;67629;46.040;18.232;2023-12-28T01:07:10;100540.09;;;4.18;97.61
78354;BME280;67629;46.040;18.232;2023-12-28T01:07:41;100529.81;;;4.13;97.11
78354;BME280;67629;46.040;18.232;2023-12-28T01:08:11;100540.44;;;4.15;97.03
78354;BME280;67629;46.040;18.232;2023-12-28T01:08:42;100539.59;;;4.14;97.10
78354;BME280;67629;46.040;18.232;2023-12-28T01:09:13;100539.44;;;4.16;97.40
78354;BME280;67629;46.040;18.232;2023-12-28T01:09:43;100533.34;;;4.14;97.07
78354;BME280;67629;46.040;18.232;2023-12-28T01:10:14;100534.38;;;4.13;97.28
78354;BME280;67629;46.040;18.232;2023-12-28T01:10:45;100539.00;;;4.04;96.81
78354;BME280;67629;46.040;18.232;2023-12-28T01:11:16;100537.69;;;4.00;97.16
78354;BME280;67629;46.040;18.232;2023-12-28T01:11:46;100535.25;;;4.05;97.84
78354;BME280;67629;46.040;18.232;2023-12-28T01:12:17;100532.53;;;4.13;97.59
78354;BME280;67629;46.040;18.232;2023-12-28T01:12:48;100538.88;;;4.20;96.92
78354;BME280;67629;46.040;18.232;2023-12-28T01:13:18;100535.16;;;4.21;96.85
78354;BME280;67629;46.040;18.232;2023-12-28T01:13:51;100544.13;;;4.22;96.92
78354;BME280;67629;46.040;18.232;2023-12-28T01:14:22;100540.75;;;4.20;97.40
78354;BME280;67629;46.040;18.232;2023-12-28T01:14:53;100542.59;;;4.19;97.56
78354;BME280;67629;46.040;18.232;2023-12-28T01:15:23;100538.22;;;4.18;97.42
78354;BME280;67629;46.040;18.232;2023-12-28T01:20:32;100540.56;;;3.98;96.76
78354;BME280;67629;46.040;18.232;2023-12-28T01:21:04;100534.81;;;4.01;96.82
78354;BME280;67629;46.040;18.232;2023-12-28T01:21:35;100536.53;;;3.94;96.81
78354;BME280;67629;46.040;18.232;2023-12-28T01:22:06;100534.13;;;3.99;97.21
78354;BME280;67629;46.040;18.232;2023-12-28T01:22:36;100533.59;;;4.04;97.02
78354;BME280;67629;46.040;18.232;2023-12-28T01:23:07;100539.66;;;4.06;96.75
78354;BME280;67629;46.040;18.232;2023-12-28T01:23:38;100540.81;;;4.12;96.95
78354;BME280;67629;46.040;18.232;2023-12-28T01:24:08;100536.91;;;4.14;96.72
78354;BME280;67629;46.040;18.232;2023-12-28T01:24:39;100540.94;;;4.18;96.90
78354;BME280;67629;46.040;18.232;2023-12-28T01:25:10;100542.78;;;4.18;97.17
78354;BME280;67629;46.040;18.232;2023-12-28T01:25:40;100540.44;;;4.15;97.48
78354;BME280;67629;46.040;18.232;2023-12-28T01:26:14;100545.50;;;4.18;97.36
78354;BME280;67629;46.040;18.232;2023-12-28T01:26:44;100535.88;;;4.15;97.00
78354;BME280;67629;46.040;18.232;2023-12-28T01:27:15;100536.91;;;4.14;97.49
78354;BME280;67629;46.040;18.232;2023-12-28T01:27:46;100542.59;;;4.19;96.87
78354;BME280;67629;46.040;18.232;2023-12-28T01:28:17;100537.53;;;4.16;97.70
78354;BME280;67629;46.040;18.232;2023-12-28T01:28:48;100540.56;;;4.21;97.14
78354;BME280;67629;46.040;18.232;2023-12-28T01:29:18;100542.44;;;4.21;97.62
78354;BME280;67629;46.040;18.232;2023-12-28T01:35:22;100538.41;;;4.17;97.33
78354;BME280;67629;46.040;18.232;2023-12-28T01:35:52;100543.34;;;4.13;96.61
78354;BME280;67629;46.040;18.232;2023-12-28T01:36:23;100533.91;;;4.09;96.68
78354;BME280;67629;46.040;18.232;2023-12-28T01:36:54;100538.66;;;4.07;96.67
78354;BME280;67629;46.040;18.232;2023-12-28T01:37:25;100536.66;;;4.01;96.70
78354;BME280;67629;46.040;18.232;2023-12-28T01:37:55;100543.94;;;4.00;97.01
78354;BME280;67629;46.040;18.232;2023-12-28T01:38:26;100538.16;;;4.03;97.26
78354;BME280;67629;46.040;18.232;2023-12-28T01:38:56;100540.50;;;4.07;97.70
78354;BME280;67629;46.040;18.232;2023-12-28T01:39:27;100547.22;;;4.11;97.19
78354;BME280;67629;46.040;18.232;2023-12-28T01:39:58;100538.75;;;4.14;96.99
78354;BME280;67629;46.040;18.232;2023-12-28T01:40:29;100541.94;;;4.17;96.69
78354;BME280;67629;46.040;18.232;2023-12-28T01:40:59;100542.94;;;4.16;96.93
78354;BME280;67629;46.040;18.232;2023-12-28T01:41:30;100542.59;;;4.19;97.32
78354;BME280;67629;46.040;18.232;2023-12-28T01:42:01;100542.25;;;4.22;96.68
78354;BME280;67629;46.040;18.232;2023-12-28T01:42:31;100536.19;;;4.20;96.96
78354;BME280;67629;46.040;18.232;2023-12-28T01:43:02;100538.94;;;4.12;97.05
78354;BME280;67629;46.040;18.232;2023-12-28T01:43:33;100541.47;;;4.14;97.02
78354;BME280;67629;46.040;18.232;2023-12-28T01:44:03;100543.81;;;4.17;96.93
78354;BME280;67629;46.040;18.232;2023-12-28T01:44:34;100539.44;;;4.16;97.08
78354;BME280;67629;46.040;18.232;2023-12-28T01:45:05;100539.44;;;4.16;97.16
78354;BME280;67629;46.040;18.232;2023-12-28T01:45:36;100536.25;;;4.12;97.41
78354;BME280;67629;46.040;18.232;2023-12-28T01:46:10;100545.19;;;4.13;97.26
78354;BME280;67629;46.040;18.232;2023-12-28T01:46:43;100538.47;;;4.09;97.22
78354;BME280;67629;46.040;18.232;2023-12-28T01:47:14;100539.84;;;4.05;97.78
78354;BME280;67629;46.040;18.232;2023-12-28T01:47:45;100543.94;;;4.00;97.69
78354;BME280;67629;46.040;18.232;2023-12-28T01:48:18;100538.31;;;4.02;97.34
78354;BME280;67629;46.040;18.232;2023-12-28T01:48:49;100540.03;;;4.03;97.69
78354;BME280;67629;46.040;18.232;2023-12-28T01:49:21;100544.09;;;3.99;97.24
78354;BME280;67629;46.040;18.232;2023-12-28T01:49:53;100539.44;;;3.93;97.57
78354;BME280;67629;46.040;18.232;2023-12-28T01:50:25;100539.88;;;3.96;97.73
78354;BME280;67629;46.040;18.232;2023-12-28T01:50:58;100542.44;;;3.98;97.98
78354;BME280;67629;46.040;18.232;2023-12-28T01:51:29;100542.13;;;3.93;97.23
78354;BME280;67629;46.040;18.232;2023-12-28T01:52:02;100538.09;;;3.89;97.70
78354;BME280;67629;46.040;18.232;2023-12-28T01:52:33;100553.28;;;3.90;97.59
78354;BME280;67629;46.040;18.232;2023-12-28T01:53:04;100552.59;;;3.88;97.66
78354;BME280;67629;46.040;18.232;2023-12-28T01:53:52;100546.25;;;3.81;98.05
78354;BME280;67629;46.040;18.232;2023-12-28T01:54:38;100547.06;;;3.51;97.46
78354;BME280;67629;46.040;18.232;2023-12-28T01:55:25;100537.75;;;3.53;98.14
78354;BME280;67629;46.040;18.232;2023-12-28T01:56:12;100541.47;;;3.60;98.09
78354;BME280;67629;46.040;18.232;2023-12-28T01:57:00;100539.09;;;3.57;98.08
78354;BME280;67629;46.040;18.232;2023-12-28T01:57:48;100545.00;;;3.61;99.03
78354;BME280;67629;46.040;18.232;2023-12-28T01:58:19;100538.25;;;3.57;98.89
78354;BME280;67629;46.040;18.232;2023-12-28T01:59:05;100545.00;;;3.61;98.83
78354;BME280;67629;46.040;18.232;2023-12-28T01:59:52;100543.97;;;3.62;99.13
78354;BME280;67629;46.040;18.232;2023-12-28T02:00:39;100542.44;;;3.67;98.98
78354;BME280;67629;46.040;18.232;2023-12-28T02:01:26;100545.81;;;3.69;99.04
78354;BME280;67629;46.040;18.232;2023-12-28T02:02:13;100533.31;;;3.68;99.48
78354;BME280;67629;46.040;18.232;2023-12-28T02:03:00;100535.34;;;3.66;99.19
78354;BME280;67629;46.040;18.232;2023-12-28T02:03:46;100530.97;;;3.65;99.46
78354;BME280;67629;46.040;18.232;2023-12-28T02:04:33;100533.84;;;3.64;99.75
78354;BME280;67629;46.040;18.232;2023-12-28T02:05:19;100534.69;;;3.64;99.56
78354;BME280;67629;46.040;18.232;2023-12-28T02:06:07;100527.94;;;3.60;99.74
78354;BME280;67629;46.040;18.232;2023-12-28T02:06:56;100527.09;;;3.60;99.65
78354;BME280;67629;46.040;18.232;2023-12-28T02:07:42;100519.84;;;3.60;99.92
78354;BME280;67629;46.040;18.232;2023-12-28T02:08:27;100518.16;;;3.59;99.58
78354;BME280;67629;46.040;18.232;2023-12-28T02:09:14;100519.91;;;3.52;99.92
78354;BME280;67629;46.040;18.232;2023-12-28T02:10:00;100514.84;;;3.49;99.87
78354;BME280;67629;46.040;18.232;2023-12-28T02:10:31;100511.44;;;3.55;99.90
78354;BME280;67629;46.040;18.232;2023-12-28T02:11:02;100511.78;;;3.52;100.00
78354;BME280;67629;46.040;18.232;2023-12-28T02:11:48;100518.50;;;3.64;100.00
78354;BME280;67629;46.040;18.232;2023-12-28T02:12:34;100517.44;;;3.65;100.00
78354;BME280;67629;46.040;18.232;2023-12-28T02:13:05;100519.31;;;3.65;100.00
78354;BME280;67629;46.040;18.232;2023-12-28T02:13:36;100517.09;;;3.68;100.00
78354;BME280;67629;46.040;18.232;2023-12-28T02:14:07;100516.94;;;3.70;100.00
78354;BME280;67629;46.040;18.232;2023-12-28T02:14:52;100518.94;;;3.76;99.62
78354;BME280;67629;46.040;18.232;2023-12-28T02:15:23;100510.63;;;3.77;99.87
78354;BME280;67629;46.040;18.232;2023-12-28T02:16:00;100500.47;;;3.79;99.69
78354;BME280;67629;46.040;18.232;2023-12-28T02:16:35;100508.13;;;3.76;99.59
78354;BME280;67629;46.040;18.232;2023-12-28T02:17:42;100507.28;;;3.75;99.59
78354;BME280;67629;46.040;18.232;2023-12-28T02:18:35;100497.84;;;3.71;99.56
78354;BME280;67629;46.040;18.232;2023-12-28T02:19:57;100502.75;;;3.68;99.39
78354;BME280;67629;46.040;18.232;2023-12-28T02:20:29;100500.72;;;3.70;99.70
78354;BME280;67629;46.040;18.232;2023-12-28T02:21:02;100498.50;;;3.73;99.83
78354;BME280;67629;46.040;18.232;2023-12-28T02:21:33;100494.97;;;3.73;99.60
78354;BME280;67629;46.040;18.232;2023-12-28T02:22:05;100502.72;;;3.76;99.39
78354;BME280;67629;46.040;18.232;2023-12-28T02:22:38;100499.16;;;3.75;99.51
78354;BME280;67629;46.040;18.232;2023-12-28T02:23:10;100493.63;;;3.69;99.62
78354;BME280;67629;46.040;18.232;2023-12-28T02:23:48;100501.44;;;3.64;99.57
78354;BME280;67629;46.040;18.232;2023-12-28T02:24:19;100504.97;;;3.64;99.52
78354;BME280;67629;46.040;18.232;2023-12-28T02:25:09;100497.22;;;3.61;99.83
78354;BME280;67629;46.040;18.232;2023-12-28T02:25:40;100492.84;;;3.60;99.43
78354;BME280;67629;46.040;18.232;2023-12-28T02:26:10;100486.22;;;3.63;99.61
78354;BME280;67629;46.040;18.232;2023-12-28T02:26:41;100499.59;;;3.64;99.55
78354;BME280;67629;46.040;18.232;2023-12-28T02:27:12;100494.84;;;3.66;99.91
78354;BME280;67629;46.040;18.232;2023-12-28T02:27:44;100484.88;;;3.67;99.44
78354;BME280;67629;46.040;18.232;2023-12-28T02:28:18;100494.28;;;3.71;99.35
78354;BME280;67629;46.040;18.232;2023-12-28T02:28:49;100491.59;;;3.71;99.66
78354;BME280;67629;46.040;18.232;2023-12-28T02:29:20;100492.63;;;3.70;99.66
78354;BME280;67629;46.040;18.232;2023-12-28T02:29:51;100491.13;;;3.67;99.51
78354;BME280;67629;46.040;18.232;2023-12-28T02:30:23;100490.63;;;3.64;99.89
78354;BME280;67629;46.040;18.232;2023-12-28T02:30:55;100481.84;;;3.62;99.82
78354;BME280;67629;46.040;18.232;2023-12-28T02:31:35;100489.78;;;3.63;100.00
78354;BME280;67629;46.040;18.232;2023-12-28T02:32:09;100486.09;;;3.56;99.64
78354;BME280;67629;46.040;18.232;2023-12-28T02:33:26;100481.84;;;3.62;99.74
78354;BME280;67629;46.040;18.232;2023-12-28T02:34:12;100484.03;;;3.66;99.90
78354;BME280;67629;46.040;18.232;2023-12-28T02:34:51;100485.53;;;3.69;100.00
78354;BME280;67629;46.040;18.232;2023-12-28T02:35:32;100480.78;;;3.71;100.00
78354;BME280;67629;46.040;18.232;2023-12-28T02:36:09;100481.28;;;3.74;99.92
78354;BME280;67629;46.040;18.232;2023-12-28T02:36:42;100480.06;;;3.77;99.59
78354;BME280;67629;46.040;18.232;2023-12-28T02:37:16;100484.63;;;3.76;99.95
78354;BME280;67629;46.040;18.232;2023-12-28T02:37:51;100487.53;;;3.75;99.09
78354;BME280;67629;46.040;18.232;2023-12-28T02:38:24;100479.22;;;3.76;99.73
78354;BME280;67629;46.040;18.232;2023-12-28T02:38:56;100476.50;;;3.76;99.67
78354;BME280;67629;46.040;18.232;2023-12-28T02:39:29;100486.50;;;3.76;99.45
78354;BME280;67629;46.040;18.232;2023-12-28T02:40:01;100477.56;;;3.75;99.53
78354;BME280;67629;46.040;18.232;2023-12-28T02:40:36;100482.13;;;3.75;99.26
78354;BME280;67629;46.040;18.232;2023-12-28T02:41:09;100476.50;;;3.76;99.45
78354;BME280;67629;46.040;18.232;2023-12-28T02:41:43;100489.31;;;3.82;99.61
78354;BME280;67629;46.040;18.232;2023-12-28T02:42:14;100490.16;;;3.83;99.34
78354;BME280;67629;46.040;18.232;2023-12-28T02:42:45;100488.31;;;3.83;99.42
78354;BME280;67629;46.040;18.232;2023-12-28T02:43:16;100483.06;;;3.82;99.11
78354;BME280;67629;46.040;18.232;2023-12-28T02:43:48;100480.72;;;3.79;98.88
78354;BME280;67629;46.040;18.232;2023-12-28T02:44:19;100478.22;;;3.77;98.92
78354;BME280;67629;46.040;18.232;2023-12-28T02:44:50;100484.47;;;3.78;98.98
78354;BME280;67629;46.040;18.232;2023-12-28T02:45:20;100482.25;;;3.81;99.34
78354;BME280;67629;46.040;18.232;2023-12-28T02:45:51;100479.72;;;3.80;98.69
78354;BME280;67629;46.040;18.232;2023-12-28T02:46:22;100480.06;;;3.77;98.66
78354;BME280;67629;46.040;18.232;2023-12-28T02:46:52;100476.88;;;3.73;99.01
78354;BME280;67629;46.040;18.232;2023-12-28T02:47:23;100478.28;;;3.69;99.01
78354;BME280;67629;46.040;18.232;2023-12-28T02:47:54;100485.34;;;3.70;98.99
78354;BME280;67629;46.040;18.232;2023-12-28T02:48:24;100470.16;;;3.69;98.68
78354;BME280;67629;46.040;18.232;2023-12-28T02:48:56;100474.72;;;3.69;98.73
78354;BME280;67629;46.040;18.232;2023-12-28T02:49:29;100480.31;;;3.67;98.87
78354;BME280;67629;46.040;18.232;2023-12-28T02:50:00;100482.53;;;3.64;98.81
78354;BME280;67629;46.040;18.232;2023-12-28T02:50:32;100473.03;;;3.68;99.53
78354;BME280;67629;46.040;18.232;2023-12-28T02:51:03;100468.47;;;3.68;99.12
78354;BME280;67629;46.040;18.232;2023-12-28T02:51:33;100478.06;;;3.71;99.37
78354;BME280;67629;46.040;18.232;2023-12-28T02:52:06;100472.69;;;3.71;99.34
78354;BME280;67629;46.040;18.232;2023-12-28T02:52:36;100474.22;;;3.65;98.98
78354;BME280;67629;46.040;18.232;2023-12-28T02:53:07;100467.16;;;3.64;98.89
78354;BME280;67629;46.040;18.232;2023-12-28T02:53:38;100471.38;;;3.67;98.90
78354;BME280;67629;46.040;18.232;2023-12-28T02:54:08;100474.72;;;3.69;99.14
78354;BME280;67629;46.040;18.232;2023-12-28T02:54:39;100469.31;;;3.69;99.41
78354;BME280;67629;46.040;18.232;2023-12-28T02:55:10;100469.88;;;3.64;99.26
78354;BME280;67629;46.040;18.232;2023-12-28T02:55:40;100472.44;;;3.58;99.27
78354;BME280;67629;46.040;18.232;2023-12-28T02:56:11;100464.97;;;3.60;99.62
78354;BME280;67629;46.040;18.232;2023-12-28T02:56:57;100471.88;;;3.62;99.57
78354;BME280;67629;46.040;18.232;2023-12-28T02:57:44;100466.81;;;3.67;99.41
78354;BME280;67629;46.040;18.232;2023-12-28T02:58:14;100466.91;;;3.74;99.44
78354;BME280;67629;46.040;18.232;2023-12-28T02:58:45;100472.63;;;3.79;99.07
78354;BME280;67629;46.040;18.232;2023-12-28T02:59:31;100467.69;;;3.82;98.97
78354;BME280;67629;46.040;18.232;2023-12-28T03:00:17;100468.38;;;3.84;99.23
78354;BME280;67629;46.040;18.232;2023-12-28T03:00:47;100467.34;;;3.85;98.63
78354;BME280;67629;46.040;18.232;2023-12-28T03:01:34;100462.50;;;3.81;98.71
78354;BME280;67629;46.040;18.232;2023-12-28T03:02:20;100466.91;;;3.74;98.88
78354;BME280;67629;46.040;18.232;2023-12-28T03:03:06;100463.69;;;3.78;99.53
78354;BME280;67629;46.040;18.232;2023-12-28T03:03:51;100467.47;;;3.69;98.88
78354;BME280;67629;46.040;18.232;2023-12-28T03:04:37;100461.41;;;3.67;98.58
78354;BME280;67629;46.040;18.232;2023-12-28T03:05:23;100461.28;;;3.61;98.48
78354;BME280;67629;46.040;18.232;2023-12-28T03:06:08;100464.31;;;3.58;98.77
78354;BME280;67629;46.040;18.232;2023-12-28T03:06:54;100463.78;;;3.62;99.76
78354;BME280;67629;46.040;18.232;2023-12-28T03:07:40;100457.66;;;3.68;100.00
78354;BME280;67629;46.040;18.232;2023-12-28T03:08:27;100456.94;;;3.74;99.84
78354;BME280;67629;46.040;18.232;2023-12-28T03:08:58;100460.19;;;3.70;99.61
78354;BME280;67629;46.040;18.232;2023-12-28T03:09:29;100461.34;;;3.75;100.00
78354;BME280;67629;46.040;18.232;2023-12-28T03:10:15;100461.81;;;3.79;99.51
78354;BME280;67629;46.040;18.232;2023-12-28T03:11:00;100457.38;;;3.63;98.89
78354;BME280;67629;46.040;18.232;2023-12-28T03:11:46;100457.00;;;3.66;99.21
78354;BME280;67629;46.040;18.232;2023-12-28T03:12:17;100446.38;;;3.65;99.34
78354;BME280;67629;46.040;18.232;2023-12-28T03:12:47;100453.81;;;3.63;99.42
78354;BME280;67629;46.040;18.232;2023-12-28T03:13:18;100453.81;;;3.63;99.57
78354;BME280;67629;46.040;18.232;2023-12-28T03:13:49;100460.56;;;3.67;99.05
78354;BME280;67629;46.040;18.232;2023-12-28T03:14:19;100462.22;;;3.68;99.07
78354;BME280;67629;46.040;18.232;2023-12-28T03:14:51;100462.13;;;3.61;99.43
78354;BME280;67629;46.040;18.232;2023-12-28T03:15:22;100461.97;;;3.55;99.37
78354;BME280;67629;46.040;18.232;2023-12-28T03:15:53;100453.38;;;3.51;99.38